Bhakkar Weather



Bhakkar's Current Weather

Temprature 27.89o clear sky

clear sky

Rain: 0 %

Min Temprature27.89o
Max Temprature27.89o
Humidity37
Wind Speed6.02 m/h
Sun Rise05:14:31
Sun Set19:10:53
Current Time: 24-May-2022 08:17:15
Lat/Lon: 31.6253, 71.0657




Bhakkar's Geo Location



Bhakkar's Weather Forecast

Time Overall Temp Min Temp Max Temp Humidity Wind Speed Rain
24-May-2022 (Tue)
11:00:00 clear sky 29.530 29.530 32.820 33 3.99 m/h 0 %
14:00:00 clear sky 33.410 33.410 36.170 24 3.69 m/h 0 %
17:00:00 clear sky 36.880 36.880 36.880 16 3.49 m/h 0 %
20:00:00 clear sky 33.580 33.580 33.580 19 3.79 m/h 0 %
23:00:00 clear sky 31.230 31.230 31.230 23 3.63 m/h 0 %
25-May-2022 (Wed)
02:00:00 clear sky 29.670 29.670 29.670 26 2.24 m/h 0 %
05:00:00 clear sky 27.870 27.870 27.870 29 2.39 m/h 0 %
08:00:00 clear sky 32.850 32.850 32.850 21 3.1 m/h 0 %
11:00:00 clear sky 37.910 37.910 37.910 15 3.63 m/h 0 %
14:00:00 clear sky 40.710 40.710 40.710 11 2.83 m/h 0 %
17:00:00 clear sky 41.660 41.660 41.660 10 3.38 m/h 0 %
20:00:00 clear sky 36.980 36.980 36.980 14 3.91 m/h 0 %
23:00:00 clear sky 34.820 34.820 34.820 15 3.9 m/h 0 %
26-May-2022 (Thu)
02:00:00 clear sky 31.930 31.930 31.930 21 2.83 m/h 0 %
05:00:00 clear sky 29.790 29.790 29.790 25 2.05 m/h 0 %
08:00:00 clear sky 35.410 35.410 35.410 18 3.9 m/h 0 %
11:00:00 clear sky 41.330 41.330 41.330 11 3.03 m/h 0 %
14:00:00 clear sky 44.670 44.670 44.670 8 2.94 m/h 0 %
17:00:00 clear sky 45.240 45.240 45.240 7 3.37 m/h 0 %
20:00:00 clear sky 40.350 40.350 40.350 9 3.03 m/h 0 %
23:00:00 clear sky 36.950 36.950 36.950 13 4.96 m/h 0 %
27-May-2022 (Fri)
02:00:00 clear sky 34.400 34.400 34.400 17 4.31 m/h 0 %
05:00:00 clear sky 31.750 31.750 31.750 21 0.81 m/h 0 %
08:00:00 clear sky 36.960 36.960 36.960 15 2.24 m/h 0 %
11:00:00 clear sky 43.610 43.610 43.610 10 1.54 m/h 0 %
14:00:00 clear sky 47.110 47.110 47.110 5 1.05 m/h 0 %
17:00:00 clear sky 47.620 47.620 47.620 4 2.92 m/h 0 %
20:00:00 clear sky 41.790 41.790 41.790 6 4.57 m/h 0 %
23:00:00 clear sky 38.330 38.330 38.330 8 3.55 m/h 0 %
28-May-2022 (Sat)
02:00:00 clear sky 36.690 36.690 36.690 7 5.69 m/h 0 %
05:00:00 clear sky 32.580 32.580 32.580 25 3.49 m/h 0 %
08:00:00 clear sky 38.710 38.710 38.710 16 7.18 m/h 0 %
11:00:00 clear sky 44.090 44.090 44.090 12 9.23 m/h 0 %
14:00:00 clear sky 46.750 46.750 46.750 5 7.84 m/h 0 %
17:00:00 clear sky 46.500 46.500 46.500 3 4.59 m/h 0 %
20:00:00 clear sky 39.700 39.700 39.700 12 9.65 m/h 0 %
23:00:00 clear sky 38.300 38.300 38.300 14 9.71 m/h 0 %
29-May-2022 (Sun)
02:00:00 few clouds 35.710 35.710 35.710 17 5.98 m/h 0 %
05:00:00 few clouds 33.510 33.510 33.510 23 4.19 m/h 0 %
08:00:00 clear sky 36.600 36.600 36.600 21 6.13 m/h 0 %


Bhakkar's Tourist Spots

Historical Places in Bhakkar

Famous Cities (61)